Accueil
METAR-TAF:

METAR-TAF

Aéroports :

Aéroport de La Rochelle - île de Ré

La Rochelle, France

latitude: 46-10-45N, longitude: 1-11-43W, altitude: 23 m

Observation

Le bulletin a été fait il y a 19 minutes, à 07:00 UTC
Vent 13 kt de nord/nord-est
Température 8°C
Humidité 71%
Pression 1042 hPa
Visibilité 10 km ou plus
Ciel couvert à une hauteur de 4500 ft

METAR: LFBH 050700Z AUTO 02013KT 9999 OVC045 08/03 Q1042 NOSIG

Heure: 08:19 (07:19 UTC)

Prévision

Le bulletin a été fait il y a 2 heures et 19 minutes, à 05:00 UTC
Prévision valable du 05 à 06 UTC au 06 à 06 UTC
Vent 6 kt de nord
Visibilité 10 km ou plus
Ciel couvert à une hauteur de 4500 ft

TAF: LFBH 050500Z 0506/0606 01006KT 9999 OVC045

Observations et prévisions météorologiques de plus de 4000 aéroports (messages METAR et TAF).

Les stations disponibles sont représentées par des disques jaunes et rouges sur la carte.

Passer la souris dessus pour voir le nom de la station.

Cliquer dessus pour voir les observations et prévisions météorologiques.

Pour changer de carte: cliquez sur les boutons verts avec une croix noire pour zoomer, sur le bouton vert avec un tiret pour effectuer un zoom arrière, ou sur les flèches vertes pour les cartes adjacentes.


METAR-TAF: